Schedule Details

Flight Number: ASX457
Departure: Mashad International Airport (OIMM) at 17:40
Arrival: Kathmandu (VNKT) at 22:30
Route: CHARN N636 PAROD P628 RK G452 CHI V10 ALI R460 LKN G598 SMR

Weather Information
OIMM 211000Z 10006KT 9999 FEW035TCU 33/01 Q1014 A2995
VNKT 211020Z 29009KT 250V320 8000 FEW015 SCT030 BKN250 28/19 Q1008 NOSIG

Schedule Frequency

Route Map